sensor_id;sensor_type;location;lat;lon;timestamp;pressure;altitude;pressure_sealevel;temperature;humidity
35519;BME280;21627;48.216;16.482;2023-05-21T00:00:28;99959.00;;;13.94;100.00
35519;BME280;21627;48.216;16.482;2023-05-21T00:02:55;99954.66;;;13.93;100.00
35519;BME280;21627;48.216;16.482;2023-05-21T00:05:25;99961.63;;;13.90;100.00
35519;BME280;21627;48.216;16.482;2023-05-21T00:07:52;99952.97;;;13.88;100.00
35519;BME280;21627;48.216;16.482;2023-05-21T00:10:20;99956.47;;;13.87;100.00
35519;BME280;21627;48.216;16.482;2023-05-21T00:12:48;99952.19;;;13.81;100.00
35519;BME280;21627;48.216;16.482;2023-05-21T00:15:15;99956.53;;;13.79;100.00
35519;BME280;21627;48.216;16.482;2023-05-21T00:17:42;99966.97;;;13.74;100.00
35519;BME280;21627;48.216;16.482;2023-05-21T00:20:09;99956.53;;;13.77;100.00
35519;BME280;21627;48.216;16.482;2023-05-21T00:22:37;99969.56;;;13.74;100.00
35519;BME280;21627;48.216;16.482;2023-05-21T00:25:04;99972.19;;;13.73;100.00
35519;BME280;21627;48.216;16.482;2023-05-21T00:27:32;99967.88;;;13.72;100.00
35519;BME280;21627;48.216;16.482;2023-05-21T00:29:59;99967.00;;;13.71;100.00
35519;BME280;21627;48.216;16.482;2023-05-21T00:32:26;99956.66;;;13.65;100.00
35519;BME280;21627;48.216;16.482;2023-05-21T00:34:53;99960.16;;;13.62;100.00
35519;BME280;21627;48.216;16.482;2023-05-21T00:37:22;99965.38;;;13.61;100.00
35519;BME280;21627;48.216;16.482;2023-05-21T00:39:50;99961.03;;;13.60;100.00
35519;BME280;21627;48.216;16.482;2023-05-21T00:42:17;99953.28;;;13.55;100.00
35519;BME280;21627;48.216;16.482;2023-05-21T00:44:44;99952.44;;;13.56;100.00
35519;BME280;21627;48.216;16.482;2023-05-21T00:47:12;99952.47;;;13.53;100.00
35519;BME280;21627;48.216;16.482;2023-05-21T00:49:40;99949.00;;;13.51;100.00
35519;BME280;21627;48.216;16.482;2023-05-21T00:52:08;99944.69;;;13.49;100.00
35519;BME280;21627;48.216;16.482;2023-05-21T00:54:35;99949.03;;;13.47;100.00
35519;BME280;21627;48.216;16.482;2023-05-21T00:57:03;99936.97;;;13.39;100.00
35519;BME280;21627;48.216;16.482;2023-05-21T00:59:31;99948.25;;;13.38;100.00
35519;BME280;21627;48.216;16.482;2023-05-21T01:01:59;99949.09;;;13.37;100.00
35519;BME280;21627;48.216;16.482;2023-05-21T01:04:31;99948.28;;;13.32;100.00
35519;BME280;21627;48.216;16.482;2023-05-21T01:06:58;99945.72;;;13.29;100.00
35519;BME280;21627;48.216;16.482;2023-05-21T01:09:26;99951.78;;;13.31;100.00
35519;BME280;21627;48.216;16.482;2023-05-21T01:11:54;99943.13;;;13.28;100.00
35519;BME280;21627;48.216;16.482;2023-05-21T01:14:23;99940.53;;;13.28;100.00
35519;BME280;21627;48.216;16.482;2023-05-21T01:16:51;99931.88;;;13.23;100.00
35519;BME280;21627;48.216;16.482;2023-05-21T01:19:21;99935.38;;;13.23;100.00
35519;BME280;21627;48.216;16.482;2023-05-21T01:21:52;99946.63;;;13.19;100.00
35519;BME280;21627;48.216;16.482;2023-05-21T01:24:19;99940.59;;;13.18;100.00
35519;BME280;21627;48.216;16.482;2023-05-21T01:26:46;99932.81;;;13.15;100.00
35519;BME280;21627;48.216;16.482;2023-05-21T01:29:14;99929.38;;;13.12;100.00
35519;BME280;21627;48.216;16.482;2023-05-21T01:35:08;99919.06;;;13.04;100.00
35519;BME280;21627;48.216;16.482;2023-05-21T01:37:50;99922.53;;;13.02;100.00
35519;BME280;21627;48.216;16.482;2023-05-21T01:40:40;99925.16;;;12.98;100.00
35519;BME280;21627;48.216;16.482;2023-05-21T01:43:11;99916.53;;;12.92;100.00
35519;BME280;21627;48.216;16.482;2023-05-21T01:45:41;99913.13;;;12.88;100.00
35519;BME280;21627;48.216;16.482;2023-05-21T01:48:10;99912.22;;;12.89;100.00
35519;BME280;21627;48.216;16.482;2023-05-21T01:50:40;99909.66;;;12.86;100.00
35519;BME280;21627;48.216;16.482;2023-05-21T01:53:07;99908.84;;;12.81;100.00
35519;BME280;21627;48.216;16.482;2023-05-21T01:55:34;99901.94;;;12.80;100.00
35519;BME280;21627;48.216;16.482;2023-05-21T01:58:05;99914.03;;;12.81;100.00
35519;BME280;21627;48.216;16.482;2023-05-21T02:00:32;99910.59;;;12.77;100.00
35519;BME280;21627;48.216;16.482;2023-05-21T02:03:00;99903.66;;;12.76;100.00
35519;BME280;21627;48.216;16.482;2023-05-21T02:05:27;99899.38;;;12.71;100.00
35519;BME280;21627;48.216;16.482;2023-05-21T02:07:54;99907.19;;;12.71;100.00
35519;BME280;21627;48.216;16.482;2023-05-21T02:10:22;99906.31;;;12.69;100.00
35519;BME280;21627;48.216;16.482;2023-05-21T02:12:50;99908.94;;;12.66;100.00
35519;BME280;21627;48.216;16.482;2023-05-21T02:15:17;99903.78;;;12.61;100.00
35519;BME280;21627;48.216;16.482;2023-05-21T02:17:45;99904.66;;;12.57;100.00
35519;BME280;21627;48.216;16.482;2023-05-21T02:20:12;99910.75;;;12.53;100.00
35519;BME280;21627;48.216;16.482;2023-05-21T02:22:42;99907.28;;;12.51;100.00
35519;BME280;21627;48.216;16.482;2023-05-21T02:25:11;99904.69;;;12.55;100.00
35519;BME280;21627;48.216;16.482;2023-05-21T02:27:39;99908.16;;;12.53;100.00
35519;BME280;21627;48.216;16.482;2023-05-21T02:30:10;99907.28;;;12.55;100.00
35519;BME280;21627;48.216;16.482;2023-05-21T02:32:38;99909.88;;;12.52;100.00
35519;BME280;21627;48.216;16.482;2023-05-21T02:35:11;99897.78;;;12.48;100.00
35519;BME280;21627;48.216;16.482;2023-05-21T02:37:39;99903.84;;;12.50;100.00
35519;BME280;21627;48.216;16.482;2023-05-21T02:40:07;99894.38;;;12.45;100.00
35519;BME280;21627;48.216;16.482;2023-05-21T02:42:37;99903.88;;;12.41;100.00
35519;BME280;21627;48.216;16.482;2023-05-21T02:45:10;99909.09;;;12.38;100.00
35519;BME280;21627;48.216;16.482;2023-05-21T02:47:37;99908.22;;;12.36;100.00
35519;BME280;21627;48.216;16.482;2023-05-21T02:50:07;99896.13;;;12.32;100.00
35519;BME280;21627;48.216;16.482;2023-05-21T02:52:34;99897.84;;;12.34;100.00
35519;BME280;21627;48.216;16.482;2023-05-21T02:55:01;99894.41;;;12.31;100.00
35519;BME280;21627;48.216;16.482;2023-05-21T02:57:28;99892.72;;;12.30;100.00
35519;BME280;21627;48.216;16.482;2023-05-21T02:59:55;99903.94;;;12.30;100.00
35519;BME280;21627;48.216;16.482;2023-05-21T03:02:23;99908.25;;;12.27;100.00
35519;BME280;21627;48.216;16.482;2023-05-21T03:04:50;99905.72;;;12.21;100.00
35519;BME280;21627;48.216;16.482;2023-05-21T03:07:17;99907.41;;;12.23;100.00
35519;BME280;21627;48.216;16.482;2023-05-21T03:09:45;99902.25;;;12.20;100.00
35519;BME280;21627;48.216;16.482;2023-05-21T03:12:13;99910.03;;;12.20;100.00
35519;BME280;21627;48.216;16.482;2023-05-21T03:14:40;99902.28;;;12.17;100.00
35519;BME280;21627;48.216;16.482;2023-05-21T03:17:12;99903.16;;;12.13;100.00
35519;BME280;21627;48.216;16.482;2023-05-21T03:19:43;99912.63;;;12.16;100.00
35519;BME280;21627;48.216;16.482;2023-05-21T03:22:10;99909.19;;;12.13;100.00
35519;BME280;21627;48.216;16.482;2023-05-21T03:24:38;99904.88;;;12.09;100.00
35519;BME280;21627;48.216;16.482;2023-05-21T03:27:05;99904.91;;;12.08;100.00
35519;BME280;21627;48.216;16.482;2023-05-21T03:29:33;99902.31;;;12.03;100.00
35519;BME280;21627;48.216;16.482;2023-05-21T03:32:00;99917.00;;;12.06;100.00
35519;BME280;21627;48.216;16.482;2023-05-21T03:34:28;99915.28;;;12.05;100.00
35519;BME280;21627;48.216;16.482;2023-05-21T03:36:55;99914.41;;;12.06;100.00
35519;BME280;21627;48.216;16.482;2023-05-21T03:39:22;99898.84;;;12.04;100.00
35519;BME280;21627;48.216;16.482;2023-05-21T03:41:49;99904.88;;;12.06;100.00
35519;BME280;21627;48.216;16.482;2023-05-21T03:44:16;99917.81;;;12.09;100.00
35519;BME280;21627;48.216;16.482;2023-05-21T03:46:44;99917.84;;;12.08;100.00
35519;BME280;21627;48.216;16.482;2023-05-21T03:49:12;99913.50;;;12.13;100.00
35519;BME280;21627;48.216;16.482;2023-05-21T03:51:39;99902.25;;;12.14;100.00
35519;BME280;21627;48.216;16.482;2023-05-21T03:54:06;99912.59;;;12.22;100.00
35519;BME280;21627;48.216;16.482;2023-05-21T03:56:33;99910.88;;;12.25;100.00
35519;BME280;21627;48.216;16.482;2023-05-21T03:59:00;99904.84;;;12.25;100.00
35519;BME280;21627;48.216;16.482;2023-05-21T04:01:27;99909.16;;;12.27;100.00
35519;BME280;21627;48.216;16.482;2023-05-21T04:03:55;99915.16;;;12.34;100.00
35519;BME280;21627;48.216;16.482;2023-05-21T04:06:22;99915.16;;;12.36;100.00
35519;BME280;21627;48.216;16.482;2023-05-21T04:08:49;99914.28;;;12.38;100.00
35519;BME280;21627;48.216;16.482;2023-05-21T04:11:18;99910.78;;;12.39;100.00
35519;BME280;21627;48.216;16.482;2023-05-21T04:13:45;99914.22;;;12.46;100.00
35519;BME280;21627;48.216;16.482;2023-05-21T04:16:14;99897.81;;;12.42;100.00
35519;BME280;21627;48.216;16.482;2023-05-21T04:18:45;99918.53;;;12.51;100.00
35519;BME280;21627;48.216;16.482;2023-05-21T04:21:13;99916.78;;;12.55;100.00
35519;BME280;21627;48.216;16.482;2023-05-21T04:23:40;99912.44;;;12.57;100.00
35519;BME280;21627;48.216;16.482;2023-05-21T04:26:07;99914.16;;;12.60;100.00
35519;BME280;21627;48.216;16.482;2023-05-21T04:28:34;99921.03;;;12.67;100.00
35519;BME280;21627;48.216;16.482;2023-05-21T04:31:02;99923.59;;;12.71;100.00
35519;BME280;21627;48.216;16.482;2023-05-21T04:33:29;99908.88;;;12.78;100.00
35519;BME280;21627;48.216;16.482;2023-05-21T04:35:56;99908.84;;;12.81;100.00
35519;BME280;21627;48.216;16.482;2023-05-21T04:38:23;99912.25;;;12.86;100.00
35519;BME280;21627;48.216;16.482;2023-05-21T04:40:52;99913.09;;;12.90;100.00
35519;BME280;21627;48.216;16.482;2023-05-21T04:43:20;99922.56;;;12.97;100.00
35519;BME280;21627;48.216;16.482;2023-05-21T04:45:54;99918.22;;;13.01;100.00
35519;BME280;21627;48.216;16.482;2023-05-21T04:48:22;99925.06;;;13.08;100.00
35519;BME280;21627;48.216;16.482;2023-05-21T04:50:51;99922.47;;;13.11;100.00
35519;BME280;21627;48.216;16.482;2023-05-21T04:53:19;99925.00;;;13.18;100.00
35519;BME280;21627;48.216;16.482;2023-05-21T04:55:46;99918.03;;;13.22;100.00
35519;BME280;21627;48.216;16.482;2023-05-21T04:58:14;99927.53;;;13.31;100.00
35519;BME280;21627;48.216;16.482;2023-05-21T05:00:44;99934.38;;;13.38;100.00
35519;BME280;21627;48.216;16.482;2023-05-21T05:03:17;99931.75;;;13.44;100.00
35519;BME280;21627;48.216;16.482;2023-05-21T05:05:45;99927.38;;;13.51;100.00
35519;BME280;21627;48.216;16.482;2023-05-21T05:08:13;99923.00;;;13.54;100.00
35519;BME280;21627;48.216;16.482;2023-05-21T05:10:42;99916.91;;;13.57;100.00
35519;BME280;21627;48.216;16.482;2023-05-21T05:13:09;99922.91;;;13.63;100.00
35519;BME280;21627;48.216;16.482;2023-05-21T05:15:36;99924.56;;;13.71;100.00
35519;BME280;21627;48.216;16.482;2023-05-21T05:18:06;99918.47;;;13.76;100.00
35519;BME280;21627;48.216;16.482;2023-05-21T05:20:34;99921.88;;;13.81;100.00
35519;BME280;21627;48.216;16.482;2023-05-21T05:23:01;99934.75;;;13.91;100.00
35519;BME280;21627;48.216;16.482;2023-05-21T05:25:28;99932.94;;;13.97;100.00
35519;BME280;21627;48.216;16.482;2023-05-21T05:27:55;99932.91;;;14.02;100.00
35519;BME280;21627;48.216;16.482;2023-05-21T05:30:22;99933.72;;;14.09;100.00
35519;BME280;21627;48.216;16.482;2023-05-21T05:32:49;99930.16;;;14.13;100.00
35519;BME280;21627;48.216;16.482;2023-05-21T05:35:17;99930.94;;;14.22;100.00
35519;BME280;21627;48.216;16.482;2023-05-21T05:37:44;99928.25;;;14.28;100.00
35519;BME280;21627;48.216;16.482;2023-05-21T05:40:11;99917.78;;;14.35;100.00
35519;BME280;21627;48.216;16.482;2023-05-21T05:42:38;99927.22;;;14.42;100.00
35519;BME280;21627;48.216;16.482;2023-05-21T05:45:06;99931.47;;;14.49;100.00
35519;BME280;21627;48.216;16.482;2023-05-21T05:47:34;99934.88;;;14.56;100.00
35519;BME280;21627;48.216;16.482;2023-05-21T05:50:01;99933.91;;;14.63;100.00
35519;BME280;21627;48.216;16.482;2023-05-21T05:52:28;99926.88;;;14.69;100.00
35519;BME280;21627;48.216;16.482;2023-05-21T05:54:56;99926.78;;;14.76;100.00
35519;BME280;21627;48.216;16.482;2023-05-21T05:57:23;99921.41;;;14.88;100.00
35519;BME280;21627;48.216;16.482;2023-05-21T05:59:50;99924.88;;;14.88;100.00
35519;BME280;21627;48.216;16.482;2023-05-21T06:02:17;99929.91;;;14.99;100.00
35519;BME280;21627;48.216;16.482;2023-05-21T06:04:44;99914.19;;;15.07;100.00
35519;BME280;21627;48.216;16.482;2023-05-21T06:07:11;99923.59;;;15.15;100.00
35519;BME280;21627;48.216;16.482;2023-05-21T06:09:38;99930.38;;;15.24;100.00
35519;BME280;21627;48.216;16.482;2023-05-21T06:12:06;99927.66;;;15.32;100.00
35519;BME280;21627;48.216;16.482;2023-05-21T06:14:33;99914.53;;;15.38;100.00
35519;BME280;21627;48.216;16.482;2023-05-21T06:17:00;99919.66;;;15.43;100.00
35519;BME280;21627;48.216;16.482;2023-05-21T06:19:27;99918.56;;;15.56;100.00
35519;BME280;21627;48.216;16.482;2023-05-21T06:21:55;99934.91;;;15.66;100.00
35519;BME280;21627;48.216;16.482;2023-05-21T06:24:22;99924.28;;;15.78;100.00
35519;BME280;21627;48.216;16.482;2023-05-21T06:26:49;99931.13;;;15.85;100.00
35519;BME280;21627;48.216;16.482;2023-05-21T06:29:16;99930.91;;;15.94;100.00
35519;BME280;21627;48.216;16.482;2023-05-21T06:31:43;99929.84;;;16.06;100.00
35519;BME280;21627;48.216;16.482;2023-05-21T06:34:11;99926.16;;;16.15;100.00
35519;BME280;21627;48.216;16.482;2023-05-21T06:36:38;99929.38;;;16.29;100.00
35519;BME280;21627;48.216;16.482;2023-05-21T06:39:05;99929.97;;;16.42;100.00
35519;BME280;21627;48.216;16.482;2023-05-21T06:41:32;99935.00;;;16.51;100.00
35519;BME280;21627;48.216;16.482;2023-05-21T06:43:59;99932.06;;;16.65;100.00
35519;BME280;21627;48.216;16.482;2023-05-21T06:46:27;99932.78;;;16.73;100.00
35519;BME280;21627;48.216;16.482;2023-05-21T06:48:54;99923.06;;;16.81;100.00
35519;BME280;21627;48.216;16.482;2023-05-21T06:51:21;99922.03;;;16.87;100.00
35519;BME280;21627;48.216;16.482;2023-05-21T06:53:48;99935.69;;;17.00;100.00
35519;BME280;21627;48.216;16.482;2023-05-21T06:56:15;99934.63;;;17.07;100.00
35519;BME280;21627;48.216;16.482;2023-05-21T06:58:42;99934.25;;;17.24;100.00
35519;BME280;21627;48.216;16.482;2023-05-21T07:01:09;99940.25;;;17.27;100.00
35519;BME280;21627;48.216;16.482;2023-05-21T07:03:37;99940.03;;;17.37;100.00
35519;BME280;21627;48.216;16.482;2023-05-21T07:06:05;99935.63;;;17.39;100.00
35519;BME280;21627;48.216;16.482;2023-05-21T07:08:32;99939.72;;;17.49;100.00
35519;BME280;21627;48.216;16.482;2023-05-21T07:10:59;99928.16;;;17.58;100.00
35519;BME280;21627;48.216;16.482;2023-05-21T07:13:28;99929.66;;;17.66;100.00
35519;BME280;21627;48.216;16.482;2023-05-21T07:15:55;99928.47;;;17.78;100.00
35519;BME280;21627;48.216;16.482;2023-05-21T07:18:23;99934.28;;;17.91;100.00
35519;BME280;21627;48.216;16.482;2023-05-21T07:20:50;99929.69;;;17.99;100.00
35519;BME280;21627;48.216;16.482;2023-05-21T07:23:17;99930.22;;;18.12;100.00
35519;BME280;21627;48.216;16.482;2023-05-21T07:25:44;99925.53;;;18.23;100.00
35519;BME280;21627;48.216;16.482;2023-05-21T07:28:11;99925.44;;;18.26;100.00
35519;BME280;21627;48.216;16.482;2023-05-21T07:30:38;99926.13;;;18.33;100.00
35519;BME280;21627;48.216;16.482;2023-05-21T07:33:05;99925.94;;;18.39;100.00
35519;BME280;21627;48.216;16.482;2023-05-21T07:35:32;99918.72;;;18.47;100.00
35519;BME280;21627;48.216;16.482;2023-05-21T07:38:00;99930.78;;;18.53;100.00
35519;BME280;21627;48.216;16.482;2023-05-21T07:40:27;99933.16;;;18.60;100.00
35519;BME280;21627;48.216;16.482;2023-05-21T07:42:54;99930.22;;;18.71;100.00
35519;BME280;21627;48.216;16.482;2023-05-21T07:45:22;99925.47;;;18.84;100.00
35519;BME280;21627;48.216;16.482;2023-05-21T07:47:49;99929.59;;;18.93;100.00
35519;BME280;21627;48.216;16.482;2023-05-21T07:50:16;99930.09;;;19.04;100.00
35519;BME280;21627;48.216;16.482;2023-05-21T07:52:43;99926.22;;;19.16;100.00
35519;BME280;21627;48.216;16.482;2023-05-21T07:55:10;99927.84;;;19.20;100.00
35519;BME280;21627;48.216;16.482;2023-05-21T07:57:37;99929.34;;;19.27;100.00
35519;BME280;21627;48.216;16.482;2023-05-21T08:00:06;99930.00;;;19.34;100.00
35519;BME280;21627;48.216;16.482;2023-05-21T08:02:35;99935.00;;;19.41;100.00
35519;BME280;21627;48.216;16.482;2023-05-21T08:05:03;99925.94;;;19.50;100.00
35519;BME280;21627;48.216;16.482;2023-05-21T08:07:30;99918.69;;;19.58;100.00
35519;BME280;21627;48.216;16.482;2023-05-21T08:09:58;99920.22;;;19.65;100.00
35519;BME280;21627;48.216;16.482;2023-05-21T08:12:28;99924.25;;;19.76;100.00
35519;BME280;21627;48.216;16.482;2023-05-21T08:14:56;99928.44;;;19.81;100.00
35519;BME280;21627;48.216;16.482;2023-05-21T08:17:25;99928.28;;;19.86;100.00
35519;BME280;21627;48.216;16.482;2023-05-21T08:19:54;99934.94;;;19.95;100.00
35519;BME280;21627;48.216;16.482;2023-05-21T08:22:21;99930.34;;;20.01;100.00
35519;BME280;21627;48.216;16.482;2023-05-21T08:24:48;99934.22;;;20.15;100.00
35519;BME280;21627;48.216;16.482;2023-05-21T08:27:15;99927.72;;;20.25;98.82
35519;BME280;21627;48.216;16.482;2023-05-21T08:29:43;99936.25;;;20.31;99.43
35519;BME280;21627;48.216;16.482;2023-05-21T08:32:10;99932.28;;;20.43;100.00
35519;BME280;21627;48.216;16.482;2023-05-21T08:34:37;99930.34;;;20.48;100.00
35519;BME280;21627;48.216;16.482;2023-05-21T08:37:04;99931.91;;;20.54;98.48
35519;BME280;21627;48.216;16.482;2023-05-21T08:39:31;99938.59;;;20.63;96.38
35519;BME280;21627;48.216;16.482;2023-05-21T08:42:12;99934.75;;;20.71;94.93
35519;BME280;21627;48.216;16.482;2023-05-21T08:44:59;99937.09;;;20.79;94.25
35519;BME280;21627;48.216;16.482;2023-05-21T08:47:29;99931.53;;;20.87;93.33
35519;BME280;21627;48.216;16.482;2023-05-21T08:49:59;99930.97;;;21.01;94.33
35519;BME280;21627;48.216;16.482;2023-05-21T08:52:26;99921.97;;;21.06;93.66
35519;BME280;21627;48.216;16.482;2023-05-21T08:54:55;99930.34;;;21.16;94.98
35519;BME280;21627;48.216;16.482;2023-05-21T08:57:24;99931.94;;;21.20;93.11
35519;BME280;21627;48.216;16.482;2023-05-21T08:59:53;99920.56;;;21.20;90.99
35519;BME280;21627;48.216;16.482;2023-05-21T09:02:20;99930.50;;;21.33;90.90
35519;BME280;21627;48.216;16.482;2023-05-21T09:04:48;99923.72;;;21.50;93.72
35519;BME280;21627;48.216;16.482;2023-05-21T09:07:17;99914.63;;;21.57;90.67
35519;BME280;21627;48.216;16.482;2023-05-21T09:10:03;99922.34;;;21.61;89.06
35519;BME280;21627;48.216;16.482;2023-05-21T09:12:32;99920.34;;;21.67;87.20
35519;BME280;21627;48.216;16.482;2023-05-21T09:14:59;99926.38;;;21.70;86.24
35519;BME280;21627;48.216;16.482;2023-05-21T09:17:27;99916.75;;;21.69;87.28
35519;BME280;21627;48.216;16.482;2023-05-21T09:20:14;99916.22;;;21.81;90.10
35519;BME280;21627;48.216;16.482;2023-05-21T09:22:51;99923.72;;;21.91;88.91
35519;BME280;21627;48.216;16.482;2023-05-21T09:25:24;99924.38;;;21.96;90.61
35519;BME280;21627;48.216;16.482;2023-05-21T09:27:55;99924.72;;;22.07;87.47
35519;BME280;21627;48.216;16.482;2023-05-21T09:30:23;99925.38;;;22.12;86.55
35519;BME280;21627;48.216;16.482;2023-05-21T09:32:58;99915.44;;;22.19;82.30
35519;BME280;21627;48.216;16.482;2023-05-21T09:35:26;99911.00;;;22.21;82.49
35519;BME280;21627;48.216;16.482;2023-05-21T09:37:54;99917.47;;;22.33;82.63
35519;BME280;21627;48.216;16.482;2023-05-21T09:40:23;99914.56;;;22.39;81.06
35519;BME280;21627;48.216;16.482;2023-05-21T09:42:53;99916.19;;;22.41;82.43
35519;BME280;21627;48.216;16.482;2023-05-21T09:45:24;99915.03;;;22.47;81.05
35519;BME280;21627;48.216;16.482;2023-05-21T09:47:54;99909.72;;;22.49;82.33
35519;BME280;21627;48.216;16.482;2023-05-21T09:50:26;99915.47;;;22.57;84.28
35519;BME280;21627;48.216;16.482;2023-05-21T09:52:57;99919.59;;;22.62;82.33
35519;BME280;21627;48.216;16.482;2023-05-21T09:55:25;99906.03;;;22.70;84.23
35519;BME280;21627;48.216;16.482;2023-05-21T09:57:53;99901.97;;;22.82;82.52
35519;BME280;21627;48.216;16.482;2023-05-21T10:00:23;99907.88;;;22.87;78.96
35519;BME280;21627;48.216;16.482;2023-05-21T10:02:55;99908.50;;;22.92;79.69
35519;BME280;21627;48.216;16.482;2023-05-21T10:05:27;99911.38;;;23.06;81.67
35519;BME280;21627;48.216;16.482;2023-05-21T10:08:02;99912.22;;;23.07;79.08
35519;BME280;21627;48.216;16.482;2023-05-21T10:10:31;99907.56;;;23.12;76.80
35519;BME280;21627;48.216;16.482;2023-05-21T10:13:09;99902.75;;;23.20;81.29
35519;BME280;21627;48.216;16.482;2023-05-21T10:15:43;99915.50;;;23.29;79.22
35519;BME280;21627;48.216;16.482;2023-05-21T10:18:12;99897.44;;;23.39;76.85
35519;BME280;21627;48.216;16.482;2023-05-21T10:20:40;99912.78;;;23.48;76.69
35519;BME280;21627;48.216;16.482;2023-05-21T10:23:08;99912.56;;;23.53;77.42
35519;BME280;21627;48.216;16.482;2023-05-21T10:25:36;99910.22;;;23.64;76.19
35519;BME280;21627;48.216;16.482;2023-05-21T10:28:03;99907.50;;;23.66;77.86
35519;BME280;21627;48.216;16.482;2023-05-21T10:30:33;99892.44;;;23.68;76.20
35519;BME280;21627;48.216;16.482;2023-05-21T10:33:03;99907.28;;;23.88;75.29
35519;BME280;21627;48.216;16.482;2023-05-21T10:35:32;99900.97;;;23.90;74.52
35519;BME280;21627;48.216;16.482;2023-05-21T10:38:03;99895.53;;;23.93;73.46
35519;BME280;21627;48.216;16.482;2023-05-21T10:40:30;99902.00;;;24.04;69.25
35519;BME280;21627;48.216;16.482;2023-05-21T10:43:23;99895.47;;;24.11;71.52
35519;BME280;21627;48.216;16.482;2023-05-21T10:46:16;99888.31;;;24.13;70.59
35519;BME280;21627;48.216;16.482;2023-05-21T10:59:49;99880.63;;;24.57;69.61
35519;BME280;21627;48.216;16.482;2023-05-21T11:02:18;99872.94;;;24.69;70.74
35519;BME280;21627;48.216;16.482;2023-05-21T11:04:47;99877.78;;;24.76;69.94
35519;BME280;21627;48.216;16.482;2023-05-21T11:07:55;99879.41;;;24.79;71.43
35519;BME280;21627;48.216;16.482;2023-05-21T11:10:39;99880.00;;;24.84;71.66
35519;BME280;21627;48.216;16.482;2023-05-21T11:13:12;99873.03;;;24.83;71.65
35519;BME280;21627;48.216;16.482;2023-05-21T11:21:15;99871.31;;;25.12;67.06
35519;BME280;21627;48.216;16.482;2023-05-21T11:24:04;99881.34;;;25.37;63.74
35519;BME280;21627;48.216;16.482;2023-05-21T11:29:15;99869.94;;;25.51;65.76
35519;BME280;21627;48.216;16.482;2023-05-21T11:32:06;99878.47;;;25.56;62.70
35519;BME280;21627;48.216;16.482;2023-05-21T11:34:46;99869.09;;;25.65;62.45
35519;BME280;21627;48.216;16.482;2023-05-21T11:39:44;99881.41;;;25.80;63.60
35519;BME280;21627;48.216;16.482;2023-05-21T11:42:12;99875.78;;;25.86;61.96
35519;BME280;21627;48.216;16.482;2023-05-21T11:47:09;99863.38;;;26.01;64.08
35519;BME280;21627;48.216;16.482;2023-05-21T11:49:38;99862.72;;;26.12;59.49
35519;BME280;21627;48.216;16.482;2023-05-21T11:52:07;99858.72;;;26.19;59.70
35519;BME280;21627;48.216;16.482;2023-05-21T11:54:52;99860.81;;;26.28;56.93
35519;BME280;21627;48.216;16.482;2023-05-21T11:57:26;99863.25;;;26.31;55.93
35519;BME280;21627;48.216;16.482;2023-05-21T11:59:59;99850.91;;;26.45;57.00
35519;BME280;21627;48.216;16.482;2023-05-21T12:02:31;99849.56;;;26.52;58.81
35519;BME280;21627;48.216;16.482;2023-05-21T12:04:58;99854.31;;;26.61;59.08
35519;BME280;21627;48.216;16.482;2023-05-21T12:07:29;99847.56;;;26.70;57.65
35519;BME280;21627;48.216;16.482;2023-05-21T12:09:59;99844.31;;;26.79;56.40
35519;BME280;21627;48.216;16.482;2023-05-21T12:12:27;99850.16;;;26.84;55.84
35519;BME280;21627;48.216;16.482;2023-05-21T12:15:11;99849.66;;;26.92;54.21
35519;BME280;21627;48.216;16.482;2023-05-21T12:17:39;99848.59;;;26.94;56.95
35519;BME280;21627;48.216;16.482;2023-05-21T12:20:07;99845.72;;;26.97;56.61
35519;BME280;21627;48.216;16.482;2023-05-21T12:22:40;99843.00;;;27.12;55.22
35519;BME280;21627;48.216;16.482;2023-05-21T12:25:08;99837.63;;;27.26;57.34
35519;BME280;21627;48.216;16.482;2023-05-21T12:27:36;99836.38;;;27.32;55.13
35519;BME280;21627;48.216;16.482;2023-05-21T12:30:04;99834.34;;;27.35;53.86
35519;BME280;21627;48.216;16.482;2023-05-21T12:32:32;99828.41;;;27.45;54.37
35519;BME280;21627;48.216;16.482;2023-05-21T12:34:59;99835.09;;;27.63;56.40
35519;BME280;21627;48.216;16.482;2023-05-21T12:37:28;99822.34;;;27.68;55.34
35519;BME280;21627;48.216;16.482;2023-05-21T12:39:59;99832.22;;;27.79;52.94
35519;BME280;21627;48.216;16.482;2023-05-21T12:42:37;99825.88;;;27.81;51.64
35519;BME280;21627;48.216;16.482;2023-05-21T12:45:07;99827.66;;;27.81;52.62
35519;BME280;21627;48.216;16.482;2023-05-21T12:47:36;99820.97;;;27.88;52.18
35519;BME280;21627;48.216;16.482;2023-05-21T12:50:07;99828.28;;;28.10;52.46
35519;BME280;21627;48.216;16.482;2023-05-21T12:52:39;99824.41;;;28.14;50.54
35519;BME280;21627;48.216;16.482;2023-05-21T12:55:11;99811.72;;;28.31;50.12
35519;BME280;21627;48.216;16.482;2023-05-21T12:57:41;99807.97;;;28.46;53.94
35519;BME280;21627;48.216;16.482;2023-05-21T13:00:10;99815.16;;;28.57;48.58
35519;BME280;21627;48.216;16.482;2023-05-21T13:02:42;99815.94;;;28.70;51.45
35519;BME280;21627;48.216;16.482;2023-05-21T13:05:16;99807.59;;;28.75;47.37
35519;BME280;21627;48.216;16.482;2023-05-21T13:07:44;99800.88;;;28.82;45.86
35519;BME280;21627;48.216;16.482;2023-05-21T13:10:14;99792.66;;;28.85;44.44
35519;BME280;21627;48.216;16.482;2023-05-21T13:12:43;99796.88;;;28.76;42.91
35519;BME280;21627;48.216;16.482;2023-05-21T13:15:11;99793.63;;;28.84;47.38
35519;BME280;21627;48.216;16.482;2023-05-21T13:17:38;99798.72;;;28.87;44.88
35519;BME280;21627;48.216;16.482;2023-05-21T13:20:17;99796.03;;;28.87;43.24